Time;durP1;ratioP1;P1;durP2;ratioP2;P2;SDS_P1;SDS_P2;PMS_P1;PMS_P2;Temp;Humidity;BMP_temperature;BMP_pressure;BME280_temperature;BME280_humidity;BME280_pressure;Samples;Min_cycle;Max_cycle;Signal;HPM_P1;HPM_P2
2022/12/12 00:01:26;;;;;;;17.67;7.57;;;;;;;-2.95;100.00;95517.38;5058136;28;20677;-72
2022/12/12 00:03:53;;;;;;;14.97;6.57;;;;;;;-3.05;100.00;95516.41;5058811;28;20563;-71
2022/12/12 00:06:19;;;;;;;12.87;5.50;;;;;;;-2.93;100.00;95515.50;5059871;28;20220;-72
2022/12/12 00:08:46;;;;;;;14.17;7.07;;;;;;;-3.02;100.00;95517.00;5060155;28;20222;-73
2022/12/12 00:11:13;;;;;;;18.03;6.63;;;;;;;-3.24;100.00;95525.59;5060903;28;20211;-71
2022/12/12 00:13:40;;;;;;;10.73;4.97;;;;;;;-3.04;100.00;95518.06;5060754;28;20210;-73
2022/12/12 00:16:08;;;;;;;18.87;7.90;;;;;;;-2.94;100.00;95524.16;5060493;28;20235;-72
2022/12/12 00:18:37;;;;;;;14.83;6.47;;;;;;;-2.85;100.00;95520.88;5061079;28;20205;-71
2022/12/12 00:21:06;;;;;;;14.77;5.60;;;;;;;-2.86;100.00;95532.16;5059719;28;20218;-71
2022/12/12 00:23:34;;;;;;;34.37;7.50;;;;;;;-2.85;100.00;95528.63;5057734;28;20592;-71
2022/12/12 00:26:03;;;;;;;15.33;6.17;;;;;;;-2.84;100.00;95522.53;5057910;28;20203;-73
2022/12/12 00:28:30;;;;;;;12.63;6.97;;;;;;;-2.90;100.00;95523.00;5058108;28;20240;-73
2022/12/12 00:30:57;;;;;;;16.83;7.83;;;;;;;-2.94;100.00;95524.16;5058641;28;20207;-74
2022/12/12 00:33:24;;;;;;;19.70;7.13;;;;;;;-2.96;100.00;95523.47;5057879;28;20209;-71
2022/12/12 00:35:53;;;;;;;15.13;5.90;;;;;;;-2.78;100.00;95524.66;5057280;28;20243;-73
2022/12/12 00:38:21;;;;;;;14.00;7.30;;;;;;;-3.03;100.00;95526.59;5058252;28;20203;-71
2022/12/12 00:40:49;;;;;;;15.57;5.63;;;;;;;-2.96;100.00;95526.03;5058252;28;20580;-72
2022/12/12 00:43:16;;;;;;;15.43;6.73;;;;;;;-2.95;100.00;95532.84;5056832;28;20203;-71
2022/12/12 00:45:42;;;;;;;19.57;7.37;;;;;;;-2.92;100.00;95535.97;5058015;28;20219;-71
2022/12/12 00:48:09;;;;;;;10.87;6.03;;;;;;;-2.89;100.00;95527.22;5057494;28;20227;-73
2022/12/12 00:50:36;;;;;;;19.33;7.50;;;;;;;-3.12;100.00;95530.66;5057910;28;20204;-71
2022/12/12 00:53:04;;;;;;;15.23;6.27;;;;;;;-2.93;100.00;95533.53;5058893;28;20219;-72
2022/12/12 00:55:30;;;;;;;13.37;6.20;;;;;;;-2.93;100.00;95533.53;5056214;28;20263;-71
2022/12/12 00:57:57;;;;;;;22.80;8.30;;;;;;;-2.98;100.00;95533.03;5056951;28;20223;-73
2022/12/12 01:00:24;;;;;;;19.87;6.40;;;;;;;-3.00;100.00;95540.09;5058124;28;20213;-71
2022/12/12 01:02:50;;;;;;;16.77;6.77;;;;;;;-3.05;100.00;95537.03;5057286;28;20209;-72
2022/12/12 01:05:17;;;;;;;18.10;7.20;;;;;;;-3.07;100.00;95528.56;5056529;28;20203;-72
2022/12/12 01:07:43;;;;;;;16.03;6.80;;;;;;;-3.04;100.00;95538.66;5057298;28;20242;-73
2022/12/12 01:10:11;;;;;;;15.47;7.33;;;;;;;-2.98;100.00;95538.19;5057103;28;20206;-71
2022/12/12 01:12:38;;;;;;;19.50;7.60;;;;;;;-3.10;100.00;95539.13;5057006;28;20258;-72
2022/12/12 01:15:07;;;;;;;17.10;5.50;;;;;;;-3.10;100.00;95544.25;5056623;28;20234;-73
2022/12/12 01:17:36;;;;;;;17.43;7.27;;;;;;;-3.22;100.00;95542.59;5056831;28;20220;-71
2022/12/12 01:20:04;;;;;;;17.63;6.13;;;;;;;-3.18;100.00;95551.75;5057206;28;20610;-73
2022/12/12 01:22:31;;;;;;;18.47;6.50;;;;;;;-3.20;100.00;95545.88;5057071;28;20201;-72
2022/12/12 01:24:59;;;;;;;19.07;6.57;;;;;;;-3.20;99.18;95548.44;5056659;28;20206;-72
2022/12/12 01:27:27;;;;;;;13.90;5.80;;;;;;;-3.20;99.42;95551.00;5056717;28;20263;-74
2022/12/12 01:29:55;;;;;;;14.17;6.60;;;;;;;-3.22;99.30;95549.47;5056409;28;20207;-73
2022/12/12 01:32:21;;;;;;;15.90;6.07;;;;;;;-3.30;98.75;95547.47;5057143;28;20210;-72
2022/12/12 01:34:48;;;;;;;17.63;6.50;;;;;;;-3.35;99.85;95544.41;5055879;28;20199;-71
2022/12/12 01:37:14;;;;;;;16.93;6.63;;;;;;;-3.38;98.62;95547.19;5056358;28;20222;-73
2022/12/12 01:39:41;;;;;;;29.50;8.70;;;;;;;-3.42;98.05;95553.50;5057222;28;20214;-71
2022/12/12 01:42:12;;;;;;;15.53;6.20;;;;;;;-3.32;98.16;95551.06;5057019;28;20214;-73
2022/12/12 01:44:44;;;;;;;13.90;4.87;;;;;;;-3.47;99.05;95560.75;5056224;28;20206;-73
2022/12/12 01:47:12;;;;;;;18.20;6.97;;;;;;;-3.46;97.95;95559.81;5056911;28;20268;-71
2022/12/12 01:49:40;;;;;;;17.00;6.40;;;;;;;-3.59;98.07;95561.63;5057374;28;20211;-71
2022/12/12 01:52:11;;;;;;;13.97;7.50;;;;;;;-3.56;98.17;95561.41;5056663;28;20206;-71
2022/12/12 01:54:41;;;;;;;18.00;7.50;;;;;;;-3.53;98.15;95556.03;5056303;28;20212;-73
2022/12/12 01:57:13;;;;;;;14.27;6.33;;;;;;;-3.54;97.44;95561.28;5057994;28;20233;-71
2022/12/12 01:59:42;;;;;;;18.57;7.47;;;;;;;-3.56;97.53;95558.81;5056699;28;20211;-74
2022/12/12 02:02:09;;;;;;;13.03;5.43;;;;;;;-3.61;97.22;95566.06;5057075;28;20203;-71
2022/12/12 02:04:36;;;;;;;17.23;6.10;;;;;;;-3.72;96.56;95554.06;5057124;28;20583;-72
2022/12/12 02:07:03;;;;;;;11.93;5.93;;;;;;;-3.75;97.97;95557.66;5056119;28;20234;-71
2022/12/12 02:09:32;;;;;;;14.50;6.00;;;;;;;-3.74;96.64;95558.47;5056359;28;20201;-73
2022/12/12 02:11:58;;;;;;;16.77;6.80;;;;;;;-3.85;96.99;95563.59;5057139;28;20881;-74
2022/12/12 02:14:28;;;;;;;19.73;7.30;;;;;;;-3.81;97.77;95559.84;5055846;28;20218;-71
2022/12/12 02:17:43;;;;;;;14.47;4.43;;;;;;;-3.75;98.60;95556.88;5056433;28;20610;-71
2022/12/12 02:20:37;;;;;;;11.03;5.10;;;;;;;-3.67;98.64;95557.13;5056353;28;20205;-71
2022/12/12 02:23:21;;;;;;;18.97;6.00;;;;;;;-3.65;97.43;95557.84;5056542;28;20289;-72
2022/12/12 02:26:06;;;;;;;10.03;5.67;;;;;;;-3.63;98.08;95560.22;5055809;28;20204;-73
2022/12/12 02:29:24;;;;;;;12.73;5.90;;;;;;;-3.53;98.14;95565.50;5055766;28;20200;-72
2022/12/12 02:31:59;;;;;;;13.00;5.60;;;;;;;-3.93;99.40;95568.44;5056360;28;20216;-72
2022/12/12 02:34:33;;;;;;;7.47;4.13;;;;;;;-3.75;96.96;95562.81;5055739;28;20201;-71
2022/12/12 02:37:10;;;;;;;14.00;5.73;;;;;;;-3.67;96.25;95568.25;5056405;28;20229;-71
2022/12/12 02:39:46;;;;;;;13.70;6.47;;;;;;;-3.74;98.30;95558.47;5055727;28;20822;-71
2022/12/12 02:42:23;;;;;;;11.90;5.73;;;;;;;-3.63;97.24;95563.69;5056482;28;20202;-71
2022/12/12 02:44:55;;;;;;;15.20;5.67;;;;;;;-3.69;97.83;95564.13;5055599;28;20225;-73
2022/12/12 02:47:26;;;;;;;20.90;7.13;;;;;;;-3.60;97.87;95566.88;5057460;28;20230;-74
2022/12/12 02:49:56;;;;;;;20.47;8.93;;;;;;;-3.68;99.93;95571.72;5059592;28;20210;-71
2022/12/12 02:52:23;;;;;;;15.00;6.53;;;;;;;-3.67;99.12;95577.72;5059732;28;20701;-71
2022/12/12 02:54:50;;;;;;;15.90;7.23;;;;;;;-3.82;99.94;95578.78;5059277;28;20211;-71
2022/12/12 02:57:18;;;;;;;13.37;6.67;;;;;;;-3.59;100.00;95584.78;5060289;28;20232;-71
2022/12/12 02:59:50;;;;;;;11.37;5.77;;;;;;;-3.47;100.00;95586.50;5059896;28;20205;-71
2022/12/12 03:02:40;;;;;;;16.07;6.87;;;;;;;-3.67;100.00;95580.31;5059718;28;20209;-72
2022/12/12 03:08:27;;;;;;;17.87;7.13;;;;;;;-3.50;100.00;95586.72;5059669;28;21029;-72
2022/12/12 03:10:57;;;;;;;12.77;5.83;;;;;;;-3.41;100.00;95583.47;5059628;28;20210;-71
2022/12/12 03:13:33;;;;;;;13.33;5.77;;;;;;;-3.31;99.83;95581.91;5060438;28;20198;-73
2022/12/12 03:16:13;;;;;;;16.40;4.93;;;;;;;-3.34;99.43;95582.09;5059167;28;20724;-71
2022/12/12 03:18:48;;;;;;;12.50;6.13;;;;;;;-3.56;99.39;95579.41;5059353;28;20202;-72
2022/12/12 03:21:21;;;;;;;10.90;6.43;;;;;;;-3.58;99.57;95578.72;5059699;28;20212;-71
2022/12/12 03:23:53;;;;;;;13.40;6.17;;;;;;;-3.59;100.00;95582.22;5059065;28;20825;-71
2022/12/12 03:26:25;;;;;;;16.93;6.30;;;;;;;-3.49;99.78;95590.09;5059454;28;20225;-72
2022/12/12 03:28:58;;;;;;;14.40;5.87;;;;;;;-3.49;98.67;95588.38;5059699;28;20216;-71
2022/12/12 03:31:30;;;;;;;17.63;6.97;;;;;;;-3.42;98.22;95589.56;5058998;28;20203;-72
2022/12/12 03:34:02;;;;;;;9.53;5.27;;;;;;;-3.68;98.76;95591.53;5058984;28;20206;-71
2022/12/12 03:36:33;;;;;;;16.83;6.63;;;;;;;-3.68;99.45;95591.53;5059268;28;20687;-73
2022/12/12 03:39:05;;;;;;;20.47;8.17;;;;;;;-3.73;98.35;95583.28;5059387;28;20209;-73
2022/12/12 03:41:36;;;;;;;17.30;7.00;;;;;;;-3.61;99.07;95589.22;5057554;28;20206;-74
2022/12/12 03:44:08;;;;;;;16.13;6.97;;;;;;;-3.59;98.30;95587.38;5058550;28;20209;-71
2022/12/12 03:46:40;;;;;;;18.07;6.50;;;;;;;-3.55;98.13;95586.22;5058569;28;20221;-72
2022/12/12 03:49:13;;;;;;;14.33;6.13;;;;;;;-3.58;97.68;95586.44;5059207;28;20209;-73
2022/12/12 03:51:46;;;;;;;17.17;6.30;;;;;;;-3.63;98.38;95580.81;5058318;28;20295;-71
2022/12/12 03:54:21;;;;;;;13.63;6.57;;;;;;;-3.75;98.81;95585.97;5057893;28;20206;-74
2022/12/12 03:56:54;;;;;;;13.47;5.17;;;;;;;-3.84;98.72;95596.09;5058299;28;20230;-74
2022/12/12 03:59:25;;;;;;;14.57;6.20;;;;;;;-4.07;99.38;95589.16;5058229;28;20873;-71
2022/12/12 04:01:57;;;;;;;9.20;6.10;;;;;;;-4.04;99.54;95584.59;5060959;28;20205;-71
2022/12/12 04:04:32;;;;;;;12.97;5.40;;;;;;;-3.95;99.39;95589.13;5062172;28;20219;-72
2022/12/12 04:07:06;;;;;;;11.43;5.93;;;;;;;-3.92;98.61;95590.66;5063132;28;20224;-71
2022/12/12 04:15:47;;;;;;;14.03;5.93;;;;;;;-3.83;97.38;95595.16;5062018;28;20279;-71
2022/12/12 04:18:19;;;;;;;10.20;4.97;;;;;;;-3.77;97.15;95602.47;5044200;28;20241;-69
2022/12/12 04:23:51;;;;;;;12.33;4.87;;;;;;;-4.23;97.22;95606.56;5062523;28;20220;-69
2022/12/12 04:26:39;;;;;;;14.50;7.20;;;;;;;-4.21;98.43;95602.16;5061627;28;20226;-71
2022/12/12 04:29:28;;;;;;;12.03;5.73;;;;;;;-4.25;98.09;95603.28;5062936;28;20201;-69
2022/12/12 04:32:00;;;;;;;19.37;5.57;;;;;;;-4.37;98.67;95606.66;5053079;28;20207;-71
2022/12/12 04:34:35;;;;;;;16.00;8.03;;;;;;;-4.33;98.64;95612.44;5061142;28;20225;-70
2022/12/12 04:37:06;;;;;;;10.23;5.70;;;;;;;-4.24;97.40;95614.38;5061761;28;20747;-70
2022/12/12 04:39:36;;;;;;;10.03;5.80;;;;;;;-4.15;97.23;95614.56;5062585;28;20193;-71
2022/12/12 04:42:05;;;;;;;11.60;5.67;;;;;;;-4.38;97.63;95615.31;5062500;28;20211;-71
2022/12/12 04:44:35;;;;;;;8.57;4.67;;;;;;;-4.37;96.95;95611.81;5061614;28;20198;-71
2022/12/12 04:47:03;;;;;;;17.37;5.93;;;;;;;-4.69;98.13;95617.47;5062225;28;20218;-71
2022/12/12 04:49:33;;;;;;;12.87;6.03;;;;;;;-4.51;98.22;95618.81;5064631;28;20216;-71
2022/12/12 04:52:06;;;;;;;16.23;6.57;;;;;;;-4.40;97.35;95622.31;5062993;28;20211;-71
2022/12/12 04:54:39;;;;;;;12.20;6.70;;;;;;;-4.36;96.16;95613.47;5062321;28;20203;-71
2022/12/12 04:57:09;;;;;;;15.80;7.00;;;;;;;-4.62;95.74;95622.09;5062026;28;20225;-71
2022/12/12 04:59:36;;;;;;;17.20;7.43;;;;;;;-4.55;95.14;95623.31;5061927;28;20200;-71
2022/12/12 05:02:10;;;;;;;18.53;6.80;;;;;;;-4.65;94.89;95622.28;5064093;28;20492;-71
2022/12/12 05:04:42;;;;;;;10.03;6.77;;;;;;;-4.63;94.88;95625.59;5062530;28;20211;-70
2022/12/12 05:07:16;;;;;;;13.17;6.23;;;;;;;-4.74;96.13;95633.16;5061350;28;20225;-69
2022/12/12 05:09:43;;;;;;;12.40;5.17;;;;;;;-4.80;95.30;95632.75;5062386;28;20196;-71
2022/12/12 05:12:10;;;;;;;14.70;6.87;;;;;;;-4.69;94.28;95635.47;5061575;28;20204;-71
2022/12/12 05:14:36;;;;;;;12.97;4.73;;;;;;;-4.73;93.69;95634.81;5061921;28;20202;-71
2022/12/12 05:17:08;;;;;;;15.83;6.63;;;;;;;-4.67;92.75;95634.44;5062550;28;20750;-71
2022/12/12 05:19:35;;;;;;;11.87;4.53;;;;;;;-5.05;94.79;95637.00;5061400;28;20204;-69
2022/12/12 05:22:01;;;;;;;18.37;6.30;;;;;;;-5.06;96.37;95636.22;5061908;28;20204;-72
2022/12/12 05:24:30;;;;;;;11.37;4.90;;;;;;;-4.88;95.30;95634.19;5060676;28;20232;-71
2022/12/12 05:26:56;;;;;;;12.30;5.10;;;;;;;-5.17;94.20;95642.94;5061445;28;20223;-70
2022/12/12 05:29:23;;;;;;;8.17;4.27;;;;;;;-5.10;95.06;95654.50;5061819;28;20588;-71
2022/12/12 05:31:49;;;;;;;5.93;3.33;;;;;;;-5.22;95.12;95652.69;5061716;28;20211;-71
2022/12/12 05:34:16;;;;;;;15.50;5.70;;;;;;;-5.10;95.88;95650.16;5061337;28;20205;-70
2022/12/12 05:36:42;;;;;;;18.07;8.47;;;;;;;-5.29;97.33;95659.16;5062095;28;20674;-71
2022/12/12 05:39:09;;;;;;;11.17;5.67;;;;;;;-5.05;96.84;95653.25;5062872;28;20212;-71
2022/12/12 05:41:37;;;;;;;13.97;5.77;;;;;;;-4.94;96.75;95644.88;5063438;28;20204;-70
2022/12/12 05:44:03;;;;;;;12.37;6.60;;;;;;;-5.06;96.51;95653.38;5061740;28;20211;-71
2022/12/12 05:46:30;;;;;;;12.77;6.03;;;;;;;-5.11;95.44;95655.41;5061082;28;20896;-70
2022/12/12 05:48:56;;;;;;;11.60;6.20;;;;;;;-5.15;95.33;95652.22;5061745;28;20976;-68
2022/12/12 05:51:23;;;;;;;12.73;5.97;;;;;;;-5.18;96.09;95660.13;5062042;28;20211;-71
2022/12/12 05:53:49;;;;;;;10.90;4.87;;;;;;;-5.12;95.74;95658.88;5060627;28;20196;-71
2022/12/12 05:56:16;;;;;;;4.70;3.43;;;;;;;-5.41;96.18;95670.16;5061274;28;20232;-69
2022/12/12 05:58:44;;;;;;;10.93;5.60;;;;;;;-5.46;97.97;95671.38;5061787;28;21056;-71
2022/12/12 06:01:11;;;;;;;10.43;4.70;;;;;;;-5.44;97.50;95672.94;5060820;28;20227;-70
2022/12/12 06:03:37;;;;;;;6.17;4.00;;;;;;;-5.64;97.50;95664.84;5060618;28;20620;-69
2022/12/12 06:06:04;;;;;;;8.83;4.97;;;;;;;-5.67;98.38;95658.16;5062046;28;20207;-70
2022/12/12 06:08:31;;;;;;;6.87;4.37;;;;;;;-5.67;100.00;95673.53;5059499;28;20640;-70
2022/12/12 06:10:57;;;;;;;7.97;5.27;;;;;;;-5.52;98.79;95666.63;5060486;28;20234;-69
2022/12/12 06:13:24;;;;;;;12.67;6.97;;;;;;;-5.47;97.70;95675.72;5061218;28;20219;-71
2022/12/12 06:15:52;;;;;;;8.70;4.83;;;;;;;-5.44;97.50;95670.38;5060456;28;20215;-70
2022/12/12 06:18:18;;;;;;;16.90;6.13;;;;;;;-5.60;98.03;95664.56;5060227;28;20224;-71
2022/12/12 06:20:45;;;;;;;16.60;5.37;;;;;;;-5.33;98.16;95676.47;5060098;28;20814;-70
2022/12/12 06:23:12;;;;;;;12.20;7.43;;;;;;;-5.24;97.62;95678.47;5063487;28;20207;-71
2022/12/12 06:25:38;;;;;;;5.43;3.87;;;;;;;-5.31;96.47;95672.09;5059852;28;20209;-71
2022/12/12 06:28:05;;;;;;;12.20;5.63;;;;;;;-5.18;97.13;95667.81;5060420;28;20220;-71
2022/12/12 06:30:31;;;;;;;11.67;4.97;;;;;;;-5.12;96.35;95676.88;5060552;28;20210;-72
2022/12/12 06:32:59;;;;;;;13.67;5.57;;;;;;;-5.10;97.05;95680.97;5060846;28;20204;-72
2022/12/12 06:35:26;;;;;;;1.13;1.03;;;;;;;-5.28;97.41;95683.91;5060034;28;20209;-71
2022/12/12 06:37:52;;;;;;;6.37;4.07;;;;;;;-5.41;98.02;95685.56;5060613;28;20238;-70
2022/12/12 06:40:19;;;;;;;9.77;5.67;;;;;;;-5.43;97.81;95690.00;5060343;28;20208;-71
2022/12/12 06:42:46;;;;;;;17.03;7.17;;;;;;;-5.31;97.71;95690.06;5060261;28;20215;-70
2022/12/12 06:45:12;;;;;;;21.40;7.37;;;;;;;-5.46;98.99;95695.28;5060102;28;21025;-70
2022/12/12 06:47:39;;;;;;;23.23;7.00;;;;;;;-5.37;99.28;95687.06;5059824;28;20227;-71
2022/12/12 06:50:07;;;;;;;12.20;6.30;;;;;;;-5.06;98.89;95685.00;5060845;28;20299;-72
2022/12/12 06:52:34;;;;;;;17.47;6.13;;;;;;;-5.01;99.55;95695.81;5062007;28;20575;-72
2022/12/12 06:55:00;;;;;;;19.40;6.00;;;;;;;-5.12;98.41;95705.13;5059720;28;20212;-72
2022/12/12 06:57:27;;;;;;;9.90;5.80;;;;;;;-5.24;98.64;95706.72;5059980;28;20228;-72
2022/12/12 06:59:53;;;;;;;13.27;5.93;;;;;;;-5.47;98.45;95711.63;5060029;28;20204;-72
2022/12/12 07:02:20;;;;;;;15.03;6.63;;;;;;;-5.10;98.34;95701.53;5059358;28;20201;-73
2022/12/12 07:04:46;;;;;;;19.27;8.50;;;;;;;-4.98;98.21;95708.44;5059539;28;20204;-72
2022/12/12 07:07:14;;;;;;;18.97;6.60;;;;;;;-4.80;97.66;95709.84;5059289;28;20228;-71
2022/12/12 07:09:41;;;;;;;17.97;8.00;;;;;;;-4.87;97.27;95715.47;5059573;28;20214;-71
2022/12/12 07:12:07;;;;;;;19.20;6.50;;;;;;;-4.98;96.37;95720.47;5059783;28;20205;-71
2022/12/12 07:14:37;;;;;;;12.27;5.63;;;;;;;-5.14;96.97;95730.06;5059592;28;20299;-71
2022/12/12 07:17:04;;;;;;;9.37;5.03;;;;;;;-5.13;97.26;95719.72;5059832;28;20240;-71
2022/12/12 07:19:30;;;;;;;14.00;5.30;;;;;;;-5.24;97.58;95713.59;5058635;28;20588;-71
2022/12/12 07:21:57;;;;;;;13.83;5.70;;;;;;;-5.17;97.57;95709.72;5066867;28;20207;-71
2022/12/12 07:24:25;;;;;;;11.60;6.57;;;;;;;-5.05;97.24;95709.78;5070822;28;20212;-71
2022/12/12 07:26:51;;;;;;;17.13;6.83;;;;;;;-5.00;98.00;95704.31;5063988;28;20605;-71
2022/12/12 07:29:18;;;;;;;17.90;5.70;;;;;;;-4.84;97.84;95705.00;5053823;28;20201;-71
2022/12/12 07:31:44;;;;;;;14.43;6.30;;;;;;;-5.18;99.19;95723.47;5070869;28;20200;-71
2022/12/12 07:34:11;;;;;;;10.33;6.53;;;;;;;-4.82;97.54;95724.53;5065665;28;20672;-71
2022/12/12 07:36:37;;;;;;;22.20;7.17;;;;;;;-4.97;96.92;95722.13;5064937;28;20232;-71
2022/12/12 07:39:04;;;;;;;12.70;5.53;;;;;;;-4.96;96.98;95718.63;5071928;28;20204;-71
2022/12/12 07:41:32;;;;;;;11.47;4.77;;;;;;;-4.90;98.15;95710.53;5061396;28;20201;-71
2022/12/12 07:43:59;;;;;;;8.10;4.13;;;;;;;-5.04;98.17;95716.56;5066045;28;20208;-69
2022/12/12 07:46:25;;;;;;;13.43;5.27;;;;;;;-4.94;97.95;95709.88;5071312;28;20240;-68
2022/12/12 07:48:53;;;;;;;22.43;9.23;;;;;;;-4.83;97.65;95719.50;5071960;28;20579;-71
2022/12/12 07:51:20;;;;;;;14.23;6.87;;;;;;;-4.76;98.41;95721.56;5069555;28;20204;-69
2022/12/12 07:53:46;;;;;;;17.00;8.40;;;;;;;-4.61;97.17;95725.72;5063615;28;20220;-72
2022/12/12 07:56:15;;;;;;;20.47;6.50;;;;;;;-4.37;96.96;95730.06;5069598;28;20204;-69
2022/12/12 07:58:43;;;;;;;15.67;7.37;;;;;;;-4.22;95.73;95735.03;5069793;28;20270;-69
2022/12/12 08:01:13;;;;;;;12.13;6.13;;;;;;;-4.48;95.27;95724.84;5070128;28;20209;-70
2022/12/12 08:03:39;;;;;;;15.07;5.97;;;;;;;-4.71;96.88;95730.63;5072197;28;20215;-69
2022/12/12 08:06:07;;;;;;;11.53;4.77;;;;;;;-4.64;97.15;95731.88;5071938;28;20217;-69
2022/12/12 08:08:34;;;;;;;4.40;2.97;;;;;;;-4.95;97.81;95739.09;5069078;28;20210;-69
2022/12/12 08:11:04;;;;;;;13.97;6.47;;;;;;;-4.85;99.09;95735.00;5070910;28;20204;-69
2022/12/12 08:13:32;;;;;;;10.33;6.07;;;;;;;-4.84;99.68;95738.41;5072089;28;20208;-70
2022/12/12 08:16:00;;;;;;;7.60;4.70;;;;;;;-4.70;98.88;95727.16;5066103;28;20211;-70
2022/12/12 08:18:27;;;;;;;8.53;4.07;;;;;;;-4.86;98.87;95735.09;5070191;28;20231;-70
2022/12/12 08:20:54;;;;;;;13.63;7.40;;;;;;;-4.65;99.29;95730.22;5071253;28;20666;-70
2022/12/12 08:23:20;;;;;;;17.43;5.00;;;;;;;-4.57;98.17;95733.16;5071000;28;20209;-70
2022/12/12 08:25:47;;;;;;;8.37;3.60;;;;;;;-4.60;97.92;95728.19;5071016;28;20200;-70
2022/12/12 08:28:13;;;;;;;8.93;4.13;;;;;;;-4.63;97.97;95730.97;5071260;28;20235;-70
2022/12/12 08:30:40;;;;;;;6.87;4.17;;;;;;;-4.44;97.81;95730.56;5071175;28;20204;-70
2022/12/12 08:33:08;;;;;;;5.87;3.30;;;;;;;-4.41;97.10;95727.81;5070685;28;20205;-70
2022/12/12 08:35:34;;;;;;;17.00;7.00;;;;;;;-4.53;97.27;95738.88;5070489;28;20608;-70
2022/12/12 08:38:02;;;;;;;16.00;7.80;;;;;;;-4.52;97.25;95732.81;5070016;28;20226;-70
2022/12/12 08:40:28;;;;;;;17.30;6.17;;;;;;;-4.11;96.58;95742.03;5069329;28;20701;-71
2022/12/12 08:42:55;;;;;;;13.20;5.77;;;;;;;-4.00;95.57;95748.09;5070555;28;20196;-71
2022/12/12 08:45:21;;;;;;;8.40;4.37;;;;;;;-4.35;96.78;95742.81;5068773;28;20227;-70
2022/12/12 08:47:48;;;;;;;10.03;4.90;;;;;;;-4.32;97.01;95748.59;5067372;28;20705;-70
2022/12/12 08:50:15;;;;;;;15.80;5.93;;;;;;;-4.07;96.10;95753.78;5068955;28;20208;-70
2022/12/12 08:52:42;;;;;;;16.33;6.90;;;;;;;-4.41;96.98;95753.53;5070754;28;20215;-70
2022/12/12 08:55:09;;;;;;;12.90;5.73;;;;;;;-4.09;97.20;95755.63;5068804;28;20205;-70
2022/12/12 08:57:36;;;;;;;12.00;6.13;;;;;;;-4.17;97.05;95758.69;5073185;28;20225;-70
2022/12/12 09:00:03;;;;;;;13.03;4.93;;;;;;;-4.09;97.15;95755.63;5070577;28;20212;-70
2022/12/12 09:02:30;;;;;;;25.70;8.43;;;;;;;-3.89;97.16;95758.50;5068434;28;20197;-70
2022/12/12 09:04:57;;;;;;;19.63;7.63;;;;;;;-3.73;95.79;95756.53;5066803;28;20235;-71
2022/12/12 09:07:24;;;;;;;12.20;5.97;;;;;;;-3.59;95.39;95759.84;5067302;28;20714;-71
2022/12/12 09:09:51;;;;;;;17.03;7.33;;;;;;;-3.63;95.81;95765.28;5065160;28;20576;-71
2022/12/12 09:12:17;;;;;;;11.20;5.33;;;;;;;-3.79;95.91;95764.69;5070161;28;20231;-70
2022/12/12 09:14:44;;;;;;;7.67;3.80;;;;;;;-4.10;96.46;95780.53;5067234;28;20207;-70
2022/12/12 09:17:10;;;;;;;15.70;6.70;;;;;;;-3.75;96.71;95760.19;5070304;28;20244;-70
2022/12/12 09:19:37;;;;;;;7.80;5.60;;;;;;;-3.52;97.39;95776.50;5069236;28;20202;-70
2022/12/12 09:22:04;;;;;;;12.80;5.13;;;;;;;-3.50;95.69;95766.94;5066404;28;20208;-70
2022/12/12 09:24:32;;;;;;;16.10;6.90;;;;;;;-3.23;95.07;95772.78;5068962;28;20221;-70
2022/12/12 09:26:58;;;;;;;18.57;8.33;;;;;;;-3.34;94.80;95769.28;5069065;28;20227;-70
2022/12/12 09:29:25;;;;;;;16.47;6.20;;;;;;;-3.22;95.31;95782.16;5069631;28;20201;-70
2022/12/12 09:31:51;;;;;;;17.87;6.90;;;;;;;-2.97;94.50;95776.91;5068764;28;20242;-70
2022/12/12 09:34:18;;;;;;;15.50;7.90;;;;;;;-2.96;94.38;95783.72;5067383;28;20213;-70
2022/12/12 09:36:44;;;;;;;17.43;8.10;;;;;;;-2.88;93.83;95778.84;5066905;28;20717;-70
2022/12/12 09:39:11;;;;;;;14.03;6.57;;;;;;;-2.77;93.82;95773.78;5067805;28;20231;-71
2022/12/12 09:41:39;;;;;;;10.63;4.97;;;;;;;-2.88;93.54;95776.28;5067377;28;20579;-70
2022/12/12 09:44:08;;;;;;;16.83;6.13;;;;;;;-2.74;93.39;95779.50;5069077;28;20709;-70
2022/12/12 09:46:39;;;;;;;9.33;4.73;;;;;;;-2.71;93.61;95786.22;5065766;28;20689;-70
2022/12/12 09:49:15;;;;;;;17.83;6.53;;;;;;;-2.51;94.05;95786.44;5066228;28;20924;-71
2022/12/12 09:51:45;;;;;;;14.20;6.30;;;;;;;-2.69;93.32;95782.59;5067450;28;20208;-70
2022/12/12 09:54:15;;;;;;;13.93;5.93;;;;;;;-2.56;93.59;95782.53;5066297;28;20211;-70
2022/12/12 09:56:53;;;;;;;6.87;3.87;;;;;;;-2.58;92.83;95779.25;5068655;28;20235;-70
2022/12/12 09:59:27;;;;;;;5.17;3.77;;;;;;;-2.60;93.46;95781.13;5064816;28;20219;-70
2022/12/12 10:02:05;;;;;;;14.53;6.17;;;;;;;-2.63;93.65;95782.16;5067308;28;20203;-70
2022/12/12 10:04:38;;;;;;;3.83;2.37;;;;;;;-2.63;93.93;95771.84;5069396;28;20189;-70
2022/12/12 10:07:14;;;;;;;10.10;5.70;;;;;;;-2.60;94.07;95770.81;5069167;28;20643;-70
2022/12/12 10:09:52;;;;;;;12.93;6.10;;;;;;;-2.35;93.79;95772.31;5067711;28;20213;-70
2022/12/12 10:12:22;;;;;;;15.73;6.70;;;;;;;-2.14;92.81;95769.94;5068999;28;20206;-70
2022/12/12 10:14:52;;;;;;;10.87;4.83;;;;;;;-2.20;91.90;95771.22;5067117;28;20202;-70
2022/12/12 10:17:23;;;;;;;14.47;6.07;;;;;;;-2.13;92.64;95762.06;5068140;28;20227;-71
2022/12/12 10:19:53;;;;;;;11.90;5.27;;;;;;;-2.12;92.73;95761.16;5067140;28;20211;-70
2022/12/12 10:22:30;;;;;;;13.47;6.23;;;;;;;-1.76;92.82;95755.81;5069327;28;20545;-70
2022/12/12 10:25:03;;;;;;;10.60;6.03;;;;;;;-1.83;91.10;95757.22;5069315;28;20230;-70
2022/12/12 10:27:31;;;;;;;16.17;8.00;;;;;;;-1.81;91.52;95758.75;5069073;28;20223;-70
2022/12/12 10:30:06;;;;;;;20.93;7.20;;;;;;;-1.64;91.33;95765.25;5070011;28;20204;-70
2022/12/12 10:32:43;;;;;;;14.17;6.90;;;;;;;-1.63;91.79;95765.13;5068821;28;20293;-71
2022/12/12 10:35:21;;;;;;;13.57;6.47;;;;;;;-1.67;91.79;95770.63;5063526;28;20207;-70
2022/12/12 10:37:56;;;;;;;22.47;8.60;;;;;;;-1.78;91.01;95763.69;5069311;28;20235;-70
2022/12/12 10:40:39;;;;;;;12.20;5.43;;;;;;;-1.98;91.78;95763.53;5069856;28;20213;-70
2022/12/12 10:43:14;;;;;;;17.93;6.60;;;;;;;-1.75;91.96;95768.63;5065311;28;20201;-70
2022/12/12 10:46:03;;;;;;;20.27;9.07;;;;;;;-1.64;93.40;95766.06;5068890;28;20195;-70
2022/12/12 10:48:30;;;;;;;17.07;7.20;;;;;;;-1.61;92.75;95760.66;5066715;28;20219;-70
2022/12/12 10:51:01;;;;;;;13.03;5.30;;;;;;;-1.58;91.21;95759.59;5069068;28;20227;-70
2022/12/12 10:53:28;;;;;;;28.17;9.77;;;;;;;-1.67;92.05;95763.72;5066700;28;20197;-70
2022/12/12 10:55:59;;;;;;;15.53;6.83;;;;;;;-1.58;91.43;95767.34;5066537;28;20533;-70
2022/12/12 10:58:35;;;;;;;12.77;6.27;;;;;;;-1.75;91.05;95758.28;5067890;28;20223;-70
2022/12/12 11:01:04;;;;;;;18.87;7.97;;;;;;;-1.44;91.40;95767.97;5069069;28;20204;-70
2022/12/12 11:03:35;;;;;;;26.27;6.07;;;;;;;-1.40;90.76;95763.38;5067871;28;20200;-69
2022/12/12 11:06:06;;;;;;;17.77;8.40;;;;;;;-1.16;89.83;95759.72;5068975;28;20680;-70
2022/12/12 11:08:35;;;;;;;14.27;6.57;;;;;;;-1.22;91.26;95755.03;5068600;28;20203;-70
2022/12/12 11:11:06;;;;;;;5.53;3.53;;;;;;;-1.27;88.93;95756.31;5071551;28;20203;-70
2022/12/12 11:13:40;;;;;;;12.63;6.57;;;;;;;-1.41;90.68;95761.72;5071301;28;20234;-70
2022/12/12 11:16:12;;;;;;;19.73;7.00;;;;;;;-1.27;90.82;95758.91;5072351;28;20214;-70
2022/12/12 11:18:39;;;;;;;16.73;7.67;;;;;;;-1.43;90.58;95754.09;5072023;28;20216;-69
2022/12/12 11:21:08;;;;;;;20.77;7.63;;;;;;;-1.31;91.67;95748.00;5069071;28;20229;-70
2022/12/12 11:23:38;;;;;;;15.93;6.40;;;;;;;-1.47;89.40;95744.94;5071275;28;20208;-69
2022/12/12 11:26:12;;;;;;;17.27;7.53;;;;;;;-1.18;89.11;95743.53;5072182;28;20278;-71
2022/12/12 11:28:42;;;;;;;16.63;5.43;;;;;;;-1.23;88.44;95739.63;5070387;28;20197;-70
2022/12/12 11:31:13;;;;;;;13.90;6.80;;;;;;;-1.31;89.27;95737.66;5071840;28;20220;-70
2022/12/12 11:33:45;;;;;;;20.80;8.60;;;;;;;-1.06;88.57;95735.66;5070550;28;20199;-69
2022/12/12 11:36:15;;;;;;;17.50;7.07;;;;;;;-1.19;88.49;95732.34;5071802;28;20203;-70
2022/12/12 11:38:48;;;;;;;16.73;7.10;;;;;;;-1.14;88.42;95717.31;5061194;28;20227;-69
2022/12/12 11:41:14;;;;;;;15.27;7.03;;;;;;;-1.24;88.19;95719.91;5059238;28;20206;-70
2022/12/12 11:43:56;;;;;;;10.80;6.80;;;;;;;-1.14;89.33;95724.25;5057660;28;20291;-70
2022/12/12 11:46:25;;;;;;;12.60;4.90;;;;;;;-1.22;89.39;95724.03;5058751;28;20220;-70
2022/12/12 11:48:59;;;;;;;21.63;7.57;;;;;;;-1.26;90.51;95720.03;5059004;28;20217;-70